Buffville, Kansas
Current Conditions -  °F | °C
As of 8:52 AM on Friday 31 Oct 2014 (Local Time) from KPPF Reporting Station
Clear Clear  
Wind Chill: 34°   Ceiling: Unl
Heat Index: 42°   Visibility: 10mi
Dew Point: 33°   Wind: 18mph
Humidity: 70%   Direction: 350°N
Pressure: 30.43"   Gusts: 24mph
Location:  37.428°N, 95.6341°W
Report Text: KPPF 311352Z AUTO 35016G21KT 10SM CLR 06/01 A3043 RMK AO2 SLP304 T00560006
Loading
Personal Weather Stations






























Interactive Weather Map
Tropical Storm Tracking
New forecast layout! Learn more

10-Day Weather Forecast

Advertisements
Track Severe Weather on mobile